createdAt,value
2023-02-07T00:00:25.095Z,103095.56
2023-02-07T00:03:26.661Z,103096.50
2023-02-07T00:06:31.788Z,103089.34
2023-02-07T00:09:37.360Z,103086.69
2023-02-07T00:12:38.870Z,103075.97
2023-02-07T00:15:40.346Z,103068.69
2023-02-07T00:18:41.957Z,103081.28
2023-02-07T00:21:43.497Z,103065.97
2023-02-07T00:24:45.054Z,103070.53
2023-02-07T00:27:46.685Z,103071.47
2023-02-07T00:30:48.359Z,103060.63
2023-02-07T00:33:51.362Z,103053.41
2023-02-07T00:36:53.288Z,103049.78
2023-02-07T00:39:55.288Z,103050.84
2023-02-07T00:42:56.757Z,103064.31
2023-02-07T00:45:59.801Z,103056.19
2023-02-07T00:49:01.637Z,103053.56
2023-02-07T00:52:03.525Z,103049.97
2023-02-07T00:55:05.188Z,103056.38
2023-02-07T00:58:06.661Z,103060.03
2023-02-07T01:01:08.530Z,103051.91
2023-02-07T01:04:10.040Z,103049.19
2023-02-07T01:07:11.530Z,103050.16
2023-02-07T01:10:13.093Z,103054.72
2023-02-07T01:13:16.159Z,103052.88
2023-02-07T01:16:19.083Z,103050.16
2023-02-07T01:19:20.792Z,103037.59
2023-02-07T01:22:22.259Z,103038.53
2023-02-07T01:25:25.555Z,103029.44
2023-02-07T01:28:27.031Z,103033.03
2023-02-07T01:31:28.830Z,103034.88
2023-02-07T01:34:30.389Z,103031.25
2023-02-07T01:37:32.120Z,103031.38
2023-02-07T01:40:36.861Z,103015.09
2023-02-07T01:44:09.013Z,103016.84
2023-02-07T01:47:20.476Z,103022.38
2023-02-07T01:50:22.751Z,103011.59
2023-02-07T01:53:27.565Z,102999.91
2023-02-07T01:56:32.280Z,102995.41
2023-02-07T01:59:38.747Z,103001.75
2023-02-07T02:02:40.733Z,102999.09
2023-02-07T02:05:43.958Z,103010.75
2023-02-07T02:08:45.855Z,103009.94
2023-02-07T02:11:59.472Z,103009.88
2023-02-07T02:15:13.131Z,103006.25
2023-02-07T02:19:06.404Z,103012.59
2023-02-07T02:22:35.691Z,103015.31
2023-02-07T02:26:11.112Z,102995.53
2023-02-07T02:29:43.241Z,102995.72
2023-02-07T02:32:57.107Z,103003.75
2023-02-07T02:36:04.616Z,103008.31
2023-02-07T02:39:19.657Z,102996.59
2023-02-07T02:42:38.189Z,102998.31
2023-02-07T02:45:53.286Z,103007.44
2023-02-07T02:48:56.102Z,102997.53
2023-02-07T02:51:57.794Z,102991.25
2023-02-07T02:54:59.260Z,102989.50
2023-02-07T02:58:34.129Z,102993.00
2023-02-07T03:02:02.555Z,102980.41
2023-02-07T03:05:31.442Z,102984.97
2023-02-07T03:08:45.764Z,102994.94
2023-02-07T03:12:04.626Z,102991.34
2023-02-07T03:15:17.008Z,102989.59
2023-02-07T03:18:26.400Z,102988.72
2023-02-07T03:21:52.289Z,102994.16
2023-02-07T03:24:58.705Z,102998.72
2023-02-07T03:28:04.362Z,102998.78
2023-02-07T03:31:08.811Z,103001.50
2023-02-07T03:34:19.052Z,103002.38
2023-02-07T03:37:26.630Z,102999.75
2023-02-07T03:40:37.995Z,102996.06
2023-02-07T03:43:41.536Z,102996.19
2023-02-07T03:46:43.211Z,102999.75
2023-02-07T03:49:44.842Z,102994.44
2023-02-07T03:52:46.488Z,102987.16
2023-02-07T03:55:48.002Z,102989.00
2023-02-07T03:58:49.534Z,102980.88
2023-02-07T04:01:51.232Z,102987.16
2023-02-07T04:04:52.755Z,102987.94
2023-02-07T04:07:54.370Z,102987.00
2023-02-07T04:11:00.386Z,102985.03
2023-02-07T04:14:01.907Z,102980.41
2023-02-07T04:17:03.409Z,102982.16
2023-02-07T04:20:06.184Z,102984.75
2023-02-07T04:23:07.722Z,102991.06
2023-02-07T04:26:09.219Z,102994.56
2023-02-07T04:29:10.695Z,102997.19
2023-02-07T04:32:12.201Z,102996.19
2023-02-07T04:35:13.688Z,103001.53
2023-02-07T04:38:15.251Z,103002.31
2023-02-07T04:41:16.829Z,103008.50
2023-02-07T04:44:18.298Z,103002.13
2023-02-07T04:47:19.813Z,103000.22
2023-02-07T04:50:21.329Z,102987.50
2023-02-07T04:53:22.855Z,102981.97
2023-02-07T04:56:24.990Z,102987.41
2023-02-07T04:59:26.510Z,102991.88
2023-02-07T05:02:27.996Z,102987.31
2023-02-07T05:05:29.556Z,102978.31
2023-02-07T05:08:31.111Z,102979.19
2023-02-07T05:11:32.581Z,102985.66
2023-02-07T05:14:34.074Z,102978.50
2023-02-07T05:17:35.684Z,102979.56
2023-02-07T05:20:37.415Z,102977.81
2023-02-07T05:23:38.909Z,102975.22
2023-02-07T05:26:40.578Z,102976.16
2023-02-07T05:29:42.054Z,102968.22
2023-02-07T05:33:02.177Z,102974.63
2023-02-07T05:36:04.974Z,102980.03
2023-02-07T05:39:06.543Z,102981.00
2023-02-07T05:42:08.039Z,102977.50
2023-02-07T05:45:10.038Z,102980.22
2023-02-07T05:48:12.162Z,102985.63
2023-02-07T05:51:13.673Z,102989.25
2023-02-07T05:54:15.186Z,102988.34
2023-02-07T05:57:16.678Z,102999.97
2023-02-07T06:00:19.126Z,103003.47
2023-02-07T06:03:20.844Z,103003.38
2023-02-07T06:06:22.371Z,102997.00
2023-02-07T06:09:23.886Z,103006.78
2023-02-07T06:12:25.527Z,102988.56
2023-02-07T06:15:27.129Z,102990.31
2023-02-07T06:18:28.585Z,102991.97
2023-02-07T06:21:45.392Z,102998.25
2023-02-07T06:24:47.496Z,102986.53
2023-02-07T06:27:49.266Z,102987.31
2023-02-07T06:30:52.180Z,102995.44
2023-02-07T06:33:53.696Z,102998.94
2023-02-07T06:36:55.245Z,103003.50
2023-02-07T06:39:56.846Z,103014.34
2023-02-07T06:42:58.399Z,103025.28
2023-02-07T06:45:59.923Z,103019.88
2023-02-07T06:49:01.572Z,103022.78
2023-02-07T06:52:03.348Z,103015.59
2023-02-07T06:55:05.033Z,103019.34
2023-02-07T06:58:07.527Z,103021.31
2023-02-07T07:01:09.082Z,103021.41
2023-02-07T07:04:10.605Z,103028.75
2023-02-07T07:07:12.167Z,103019.81
2023-02-07T07:10:14.317Z,103026.31
2023-02-07T07:13:15.838Z,103034.44
2023-02-07T07:16:17.447Z,103035.41
2023-02-07T07:19:18.949Z,103035.50
2023-02-07T07:22:23.395Z,103034.63
2023-02-07T07:25:24.987Z,103036.47
2023-02-07T07:28:26.529Z,103046.47
2023-02-07T07:31:28.099Z,103060.00
2023-02-07T07:34:29.646Z,103060.97
2023-02-07T07:37:31.729Z,103068.16
2023-02-07T07:40:33.351Z,103065.63
2023-02-07T07:43:34.893Z,103067.44
2023-02-07T07:46:36.376Z,103058.56
2023-02-07T07:49:37.882Z,103063.00
2023-02-07T07:52:39.401Z,103057.66
2023-02-07T07:55:40.898Z,103059.41
2023-02-07T07:58:42.434Z,103066.56
2023-02-07T08:01:43.959Z,103067.38
2023-02-07T08:04:45.502Z,103066.38
2023-02-07T08:07:47.131Z,103065.44
2023-02-07T08:10:49.433Z,103063.53
2023-02-07T08:13:51.146Z,103059.75
2023-02-07T08:16:52.679Z,103067.69
2023-02-07T08:19:54.235Z,103067.50
2023-02-07T08:22:57.491Z,103061.09
2023-02-07T08:25:59.054Z,103063.72
2023-02-07T08:29:00.632Z,103065.38
2023-02-07T08:32:02.198Z,103059.97
2023-02-07T08:35:03.770Z,103062.59
2023-02-07T08:38:05.363Z,103046.19
2023-02-07T08:41:07.002Z,103038.00
2023-02-07T08:44:08.474Z,103038.78
2023-02-07T08:47:10.001Z,103028.78
2023-02-07T08:50:13.413Z,103027.72
2023-02-07T08:53:15.039Z,103029.47
2023-02-07T08:56:16.540Z,103025.69
2023-02-07T08:59:18.185Z,103026.56
2023-02-07T09:02:19.687Z,103022.03
2023-02-07T09:05:21.214Z,103027.34
2023-02-07T09:08:22.663Z,103022.78
2023-02-07T09:11:24.395Z,103019.13
2023-02-07T09:14:25.995Z,103019.97
2023-02-07T09:17:27.763Z,103027.25
2023-02-07T09:20:29.247Z,103021.72
2023-02-07T09:23:33.113Z,103021.72
2023-02-07T09:26:36.067Z,103031.50
2023-02-07T09:29:37.566Z,103033.34
2023-02-07T09:32:39.046Z,103030.44
2023-02-07T09:35:43.624Z,103034.91
2023-02-07T09:38:45.215Z,103036.75
2023-02-07T09:42:05.570Z,103037.44
2023-02-07T09:45:16.584Z,103033.75
2023-02-07T09:48:26.627Z,103037.25
2023-02-07T09:51:28.445Z,103036.38
2023-02-07T09:54:38.547Z,103039.00
2023-02-07T09:57:46.222Z,103032.69
2023-02-07T10:00:58.208Z,103023.66
2023-02-07T10:04:24.524Z,103034.44
2023-02-07T10:07:26.096Z,103019.03
2023-02-07T10:10:51.432Z,103022.41
2023-02-07T10:14:25.340Z,103025.03
2023-02-07T10:17:35.844Z,103019.53
2023-02-07T10:20:39.516Z,103022.31
2023-02-07T10:24:02.725Z,103023.97
2023-02-07T10:27:10.587Z,103024.78
2023-02-07T10:30:21.633Z,103024.66
2023-02-07T10:33:31.746Z,103030.03
2023-02-07T10:36:34.274Z,103037.19
2023-02-07T10:39:45.346Z,103035.38
2023-02-07T10:42:54.418Z,103038.94
2023-02-07T10:46:05.984Z,103041.53
2023-02-07T10:49:36.115Z,103042.44
2023-02-07T10:52:43.050Z,103036.03
2023-02-07T10:55:47.878Z,103046.03
2023-02-07T10:58:49.667Z,103047.88
2023-02-07T11:01:54.279Z,103046.88
2023-02-07T11:04:58.187Z,103054.44
2023-02-07T11:08:25.881Z,103048.75
2023-02-07T11:11:32.950Z,103034.28
2023-02-07T11:14:36.281Z,103029.34
2023-02-07T11:17:37.873Z,103034.72
2023-02-07T11:20:40.742Z,103030.09
2023-02-07T11:23:44.646Z,103028.84
2023-02-07T11:27:12.614Z,103029.19
2023-02-07T11:30:20.483Z,103020.66
2023-02-07T11:33:26.591Z,103023.91
2023-02-07T11:36:33.551Z,103012.75
2023-02-07T11:39:36.175Z,103014.31
2023-02-07T11:42:37.675Z,103014.03
2023-02-07T11:46:03.655Z,103005.72
2023-02-07T11:49:09.073Z,103006.38
2023-02-07T11:52:11.541Z,103007.94
2023-02-07T11:55:26.516Z,103020.47
2023-02-07T11:58:33.406Z,103013.09
2023-02-07T12:01:36.140Z,103011.19
2023-02-07T12:04:38.803Z,103012.91
2023-02-07T12:07:48.071Z,103014.63
2023-02-07T12:10:55.953Z,103002.91
2023-02-07T12:14:05.280Z,103009.22
2023-02-07T12:17:24.587Z,103003.78
2023-02-07T12:20:44.551Z,103005.63
2023-02-07T12:23:57.956Z,102998.47
2023-02-07T12:27:14.120Z,103003.03
2023-02-07T12:30:18.597Z,102993.13
2023-02-07T12:33:31.336Z,102997.69
2023-02-07T12:36:42.083Z,102992.34
2023-02-07T12:39:53.361Z,102985.97
2023-02-07T12:43:02.639Z,102974.25
2023-02-07T12:46:18.180Z,102983.34
2023-02-07T12:49:43.750Z,102968.91
2023-02-07T12:53:09.788Z,102972.50
2023-02-07T12:56:31.085Z,102974.34
2023-02-07T12:59:45.094Z,102970.75
2023-02-07T13:03:17.603Z,102968.03
2023-02-07T13:06:35.851Z,102966.28
2023-02-07T13:09:48.979Z,102963.56
2023-02-07T13:12:58.264Z,102959.91
2023-02-07T13:16:11.617Z,102960.56
2023-02-07T13:19:28.562Z,102956.00
2023-02-07T13:22:49.180Z,102949.66
2023-02-07T13:25:57.328Z,102957.88
2023-02-07T13:29:02.391Z,102965.13
2023-02-07T13:32:13.024Z,102961.56
2023-02-07T13:35:20.545Z,102961.44
2023-02-07T13:38:46.261Z,102963.22
2023-02-07T13:42:09.694Z,102965.06
2023-02-07T13:45:30.604Z,102962.22
2023-02-07T13:48:52.459Z,102956.78
2023-02-07T13:52:05.499Z,102953.13
2023-02-07T13:55:29.032Z,102963.88
2023-02-07T13:58:52.349Z,102955.66
2023-02-07T14:01:58.063Z,102959.31
2023-02-07T14:05:09.020Z,102952.06
2023-02-07T14:08:16.528Z,102960.22
2023-02-07T14:11:34.136Z,102960.22
2023-02-07T14:14:38.032Z,102962.03
2023-02-07T14:17:39.632Z,102971.16
2023-02-07T14:20:41.295Z,102958.56
2023-02-07T14:24:09.259Z,102953.03
2023-02-07T14:27:28.143Z,102957.50
2023-02-07T14:30:39.007Z,102956.72
2023-02-07T14:33:40.824Z,102959.31
2023-02-07T14:36:43.044Z,102952.06
2023-02-07T14:39:44.794Z,102964.75
2023-02-07T14:43:03.698Z,102970.09
2023-02-07T14:46:11.240Z,102980.94
2023-02-07T14:49:24.754Z,102972.88
2023-02-07T14:52:30.714Z,102968.44
2023-02-07T14:55:43.276Z,102973.00
2023-02-07T14:58:46.781Z,102972.13
2023-02-07T15:01:48.569Z,102967.78
2023-02-07T15:04:50.046Z,102961.44
2023-02-07T15:08:03.654Z,102960.56
2023-02-07T15:11:06.233Z,102959.78
2023-02-07T15:14:20.708Z,102958.84
2023-02-07T15:17:24.605Z,102955.34
2023-02-07T15:20:31.992Z,102953.50
2023-02-07T15:23:33.717Z,102956.34
2023-02-07T15:26:36.352Z,102948.19
2023-02-07T15:29:38.086Z,102948.06
2023-02-07T15:32:46.022Z,102947.13
2023-02-07T15:35:47.527Z,102946.22
2023-02-07T15:38:49.083Z,102938.00
2023-02-07T15:41:53.132Z,102935.22
2023-02-07T15:44:56.602Z,102942.38
2023-02-07T15:48:09.362Z,102949.53
2023-02-07T15:51:12.307Z,102939.66
2023-02-07T15:54:16.895Z,102946.81
2023-02-07T15:57:33.623Z,102946.66
2023-02-07T16:00:40.091Z,102941.97
2023-02-07T16:03:44.855Z,102949.03
2023-02-07T16:07:01.752Z,102955.16
2023-02-07T16:10:20.020Z,102951.38
2023-02-07T16:13:22.786Z,102953.13
2023-02-07T16:16:28.828Z,102956.59
2023-02-07T16:19:32.373Z,102955.63
2023-02-07T16:22:33.940Z,102950.97
2023-02-07T16:25:36.286Z,102948.19
2023-02-07T16:28:38.000Z,102958.91
2023-02-07T16:31:39.538Z,102941.69
2023-02-07T16:34:53.788Z,102949.72
2023-02-07T16:38:00.195Z,102951.50
2023-02-07T16:41:03.369Z,102952.38
2023-02-07T16:44:07.869Z,102956.81
2023-02-07T16:47:13.129Z,102953.25
2023-02-07T16:50:18.847Z,102951.38
2023-02-07T16:53:20.370Z,102959.53
2023-02-07T16:56:26.712Z,102955.00
2023-02-07T16:59:28.679Z,102945.09
2023-02-07T17:02:30.285Z,102940.66
2023-02-07T17:05:31.859Z,102944.22
2023-02-07T17:08:33.375Z,102941.50
2023-02-07T17:11:34.884Z,102932.38
2023-02-07T17:14:38.120Z,102932.22
2023-02-07T17:17:39.681Z,102933.94
2023-02-07T17:20:41.593Z,102933.88
2023-02-07T17:23:44.482Z,102940.94
2023-02-07T17:26:48.927Z,102942.66
2023-02-07T17:29:50.394Z,102947.03
2023-02-07T17:32:52.546Z,102952.25
2023-02-07T17:35:54.060Z,102956.59
2023-02-07T17:38:58.338Z,102953.81
2023-02-07T17:42:04.987Z,102963.59
2023-02-07T17:45:06.746Z,102956.41
2023-02-07T17:48:11.823Z,102962.53
2023-02-07T17:51:18.251Z,102956.97
2023-02-07T17:54:19.870Z,102967.84
2023-02-07T17:57:21.319Z,102958.81
2023-02-07T18:00:30.986Z,102963.31
2023-02-07T18:03:32.543Z,102963.38
2023-02-07T18:06:34.140Z,102957.09
2023-02-07T18:09:35.690Z,102959.81
2023-02-07T18:12:37.607Z,102960.75
2023-02-07T18:15:39.220Z,102955.34
2023-02-07T18:18:40.850Z,102954.59
2023-02-07T18:21:42.558Z,102960.00
2023-02-07T18:24:44.073Z,102955.53
2023-02-07T18:27:46.909Z,102955.66
2023-02-07T18:30:48.529Z,102965.75
2023-02-07T18:33:51.549Z,102967.47
2023-02-07T18:36:53.055Z,102967.66
2023-02-07T18:39:54.495Z,102969.31
2023-02-07T18:42:56.898Z,102974.75
2023-02-07T18:45:58.386Z,102975.63
2023-02-07T18:48:59.991Z,102970.09
2023-02-07T18:52:01.842Z,102962.72
2023-02-07T18:55:03.578Z,102962.81
2023-02-07T18:58:05.263Z,102965.44
2023-02-07T19:01:10.188Z,102965.44
2023-02-07T19:04:11.781Z,102963.81
2023-02-07T19:07:13.654Z,102961.09
2023-02-07T19:10:16.612Z,102963.88
2023-02-07T19:13:18.108Z,102971.03
2023-02-07T19:16:22.281Z,102967.38
2023-02-07T19:19:27.806Z,102965.63
2023-02-07T19:22:35.239Z,102958.47
2023-02-07T19:25:37.559Z,102956.59
2023-02-07T19:28:39.244Z,102959.31
2023-02-07T19:31:43.308Z,102963.81
2023-02-07T19:34:44.773Z,102972.69
2023-02-07T19:37:46.322Z,102972.59
2023-02-07T19:40:55.376Z,102968.03
2023-02-07T19:43:57.311Z,102968.81
2023-02-07T19:46:58.867Z,102968.81
2023-02-07T19:50:00.335Z,102966.88
2023-02-07T19:53:01.878Z,102969.59
2023-02-07T19:56:08.870Z,102963.09
2023-02-07T19:59:10.985Z,102959.50
2023-02-07T20:02:13.238Z,102958.53
2023-02-07T20:05:14.742Z,102956.69
2023-02-07T20:08:16.400Z,102954.84
2023-02-07T20:11:19.396Z,102957.47
2023-02-07T20:14:21.106Z,102960.25
2023-02-07T20:17:22.629Z,102957.53
2023-02-07T20:20:24.936Z,102957.53
2023-02-07T20:23:28.397Z,102952.13
2023-02-07T20:26:36.593Z,102948.44
2023-02-07T20:29:38.090Z,102940.38
2023-02-07T20:32:39.600Z,102947.59
2023-02-07T20:35:41.103Z,102940.38
2023-02-07T20:38:44.978Z,102948.66
2023-02-07T20:41:49.409Z,102944.28
2023-02-07T20:44:50.919Z,102948.94
2023-02-07T20:47:52.377Z,102942.66
2023-02-07T20:50:57.790Z,102947.97
2023-02-07T20:54:03.056Z,102942.66
2023-02-07T20:57:04.805Z,102938.38
2023-02-07T21:00:08.446Z,102934.81
2023-02-07T21:03:09.884Z,102935.00
2023-02-07T21:06:12.150Z,102935.97
2023-02-07T21:09:14.844Z,102931.72
2023-02-07T21:12:17.014Z,102937.25
2023-02-07T21:15:18.588Z,102936.38
2023-02-07T21:18:20.125Z,102929.19
2023-02-07T21:21:21.618Z,102927.34
2023-02-07T21:24:23.566Z,102931.88
2023-02-07T21:27:25.015Z,102931.88
2023-02-07T21:30:26.546Z,102930.16
2023-02-07T21:33:28.018Z,102932.97
2023-02-07T21:36:32.142Z,102926.66
2023-02-07T21:39:33.661Z,102925.88
2023-02-07T21:42:35.345Z,102928.72
2023-02-07T21:45:36.887Z,102927.06
2023-02-07T21:48:39.619Z,102929.78
2023-02-07T21:51:42.323Z,102928.91
2023-02-07T21:54:43.812Z,102931.69
2023-02-07T21:57:45.357Z,102931.78
2023-02-07T22:00:46.936Z,102927.34
2023-02-07T22:03:50.337Z,102931.97
2023-02-07T22:06:51.956Z,102932.19
2023-02-07T22:09:53.468Z,102924.13
2023-02-07T22:12:55.114Z,102931.41
2023-02-07T22:15:56.541Z,102935.19
2023-02-07T22:19:00.023Z,102935.31
2023-02-07T22:22:01.622Z,102934.41
2023-02-07T22:25:03.184Z,102941.03
2023-02-07T22:28:04.873Z,102932.97
2023-02-07T22:31:11.212Z,102943.94
2023-02-07T22:34:14.488Z,102944.00
2023-02-07T22:37:16.034Z,102940.44
2023-02-07T22:40:17.587Z,102942.28
2023-02-07T22:43:19.072Z,102936.06
2023-02-07T22:46:24.321Z,102937.03
2023-02-07T22:49:25.929Z,102930.72
2023-02-07T22:52:27.426Z,102927.16
2023-02-07T22:55:28.966Z,102930.72
2023-02-07T22:58:30.703Z,102922.72
2023-02-07T23:01:34.636Z,102923.56
2023-02-07T23:04:36.137Z,102921.94
2023-02-07T23:07:37.969Z,102922.88
2023-02-07T23:10:43.457Z,102928.31
2023-02-07T23:13:45.666Z,102942.94
2023-02-07T23:16:47.173Z,102946.63
2023-02-07T23:19:48.708Z,102937.50
2023-02-07T23:22:50.840Z,102940.34
2023-02-07T23:25:52.316Z,102932.28
2023-02-07T23:28:53.981Z,102943.13
2023-02-07T23:31:55.548Z,102939.56
2023-02-07T23:34:57.058Z,102946.91
2023-02-07T23:37:59.333Z,102942.34
2023-02-07T23:41:00.997Z,102935.28
2023-02-07T23:44:02.729Z,102941.69
2023-02-07T23:47:05.625Z,102948.94
2023-02-07T23:50:07.720Z,102952.63
2023-02-07T23:53:09.364Z,102947.19
2023-02-07T23:56:14.988Z,102932.88
2023-02-07T23:59:16.518Z,102925.69
